createdAt,value
2023-05-03T00:02:16.438Z,100.00
2023-05-03T00:04:46.375Z,100.00
2023-05-03T00:07:14.599Z,100.00
2023-05-03T00:09:42.129Z,100.00
2023-05-03T00:12:09.597Z,100.00
2023-05-03T00:14:37.053Z,100.00
2023-05-03T00:17:04.472Z,100.00
2023-05-03T00:19:33.590Z,100.00
2023-05-03T00:22:01.193Z,100.00
2023-05-03T00:24:28.662Z,100.00
2023-05-03T00:26:56.040Z,100.00
2023-05-03T00:29:23.554Z,100.00
2023-05-03T00:31:51.224Z,100.00
2023-05-03T00:34:18.718Z,100.00
2023-05-03T00:36:46.252Z,100.00
2023-05-03T00:39:14.275Z,100.00
2023-05-03T00:41:41.970Z,100.00
2023-05-03T00:44:09.349Z,100.00
2023-05-03T00:46:36.725Z,100.00
2023-05-03T00:49:06.902Z,100.00
2023-05-03T00:51:34.299Z,100.00
2023-05-03T00:54:01.684Z,100.00
2023-05-03T00:56:32.962Z,100.00
2023-05-03T00:59:06.516Z,100.00
2023-05-03T01:01:34.173Z,100.00
2023-05-03T01:04:06.338Z,100.00
2023-05-03T01:07:00.692Z,100.00
2023-05-03T01:09:58.805Z,100.00
2023-05-03T01:12:47.657Z,100.00
2023-05-03T01:15:28.559Z,100.00
2023-05-03T01:18:08.180Z,100.00
2023-05-03T01:20:37.511Z,100.00
2023-05-03T01:23:30.336Z,100.00
2023-05-03T01:26:01.096Z,100.00
2023-05-03T01:28:28.508Z,100.00
2023-05-03T01:30:57.763Z,100.00
2023-05-03T01:33:33.662Z,100.00
2023-05-03T01:36:20.883Z,100.00
2023-05-03T01:38:51.821Z,100.00
2023-05-03T01:41:22.350Z,100.00
2023-05-03T01:43:51.763Z,100.00
2023-05-03T01:46:19.338Z,100.00
2023-05-03T01:48:47.863Z,100.00
2023-05-03T01:51:15.299Z,100.00
2023-05-03T01:53:43.580Z,100.00
2023-05-03T01:56:11.005Z,100.00
2023-05-03T01:58:38.364Z,100.00
2023-05-03T02:01:08.031Z,100.00
2023-05-03T02:03:35.632Z,100.00
2023-05-03T02:06:03.036Z,100.00
2023-05-03T02:08:30.776Z,100.00
2023-05-03T02:10:58.236Z,100.00
2023-05-03T02:13:26.008Z,100.00
2023-05-03T02:15:53.637Z,100.00
2023-05-03T02:18:22.315Z,100.00
2023-05-03T02:20:49.644Z,100.00
2023-05-03T02:23:16.954Z,100.00
2023-05-03T02:25:44.468Z,100.00
2023-05-03T02:28:13.470Z,100.00
2023-05-03T02:30:40.959Z,100.00
2023-05-03T02:33:08.556Z,100.00
2023-05-03T02:35:38.005Z,100.00
2023-05-03T02:38:06.363Z,100.00
2023-05-03T02:40:33.828Z,100.00
2023-05-03T02:43:02.773Z,100.00
2023-05-03T02:45:31.969Z,100.00
2023-05-03T02:47:59.891Z,100.00
2023-05-03T02:50:28.228Z,100.00
2023-05-03T02:52:55.593Z,100.00
2023-05-03T02:55:23.240Z,100.00
2023-05-03T02:57:50.819Z,100.00
2023-05-03T03:00:20.280Z,100.00
2023-05-03T03:02:47.865Z,100.00
2023-05-03T03:05:15.460Z,100.00
2023-05-03T03:07:48.593Z,100.00
2023-05-03T03:10:16.194Z,100.00
2023-05-03T03:12:43.792Z,100.00
2023-05-03T03:15:17.774Z,100.00
2023-05-03T03:17:46.065Z,100.00
2023-05-03T03:20:13.582Z,100.00
2023-05-03T03:22:45.563Z,100.00
2023-05-03T03:25:13.241Z,100.00
2023-05-03T03:27:40.851Z,100.00
2023-05-03T03:30:09.393Z,100.00
2023-05-03T03:32:45.130Z,100.00
2023-05-03T03:35:17.478Z,100.00
2023-05-03T03:37:44.877Z,100.00
2023-05-03T03:40:12.860Z,100.00
2023-05-03T03:42:40.897Z,100.00
2023-05-03T03:45:08.973Z,100.00
2023-05-03T03:47:36.464Z,100.00
2023-05-03T03:50:07.013Z,100.00
2023-05-03T03:52:35.791Z,100.00
2023-05-03T03:55:03.451Z,100.00
2023-05-03T03:57:31.656Z,100.00
2023-05-03T04:00:00.099Z,100.00
2023-05-03T04:02:29.519Z,100.00
2023-05-03T04:04:57.387Z,100.00
2023-05-03T04:07:24.708Z,100.00
2023-05-03T04:09:52.193Z,100.00
2023-05-03T04:12:19.754Z,100.00
2023-05-03T04:14:47.421Z,100.00
2023-05-03T04:17:15.403Z,100.00
2023-05-03T04:19:43.755Z,100.00
2023-05-03T04:22:12.576Z,100.00
2023-05-03T04:24:40.708Z,100.00
2023-05-03T04:27:09.806Z,100.00
2023-05-03T04:29:39.603Z,100.00
2023-05-03T04:32:07.847Z,100.00
2023-05-03T04:34:37.757Z,100.00
2023-05-03T04:37:06.664Z,100.00
2023-05-03T04:39:34.216Z,100.00
2023-05-03T04:42:02.907Z,100.00
2023-05-03T04:44:30.442Z,100.00
2023-05-03T04:47:01.865Z,100.00
2023-05-03T04:49:30.384Z,100.00
2023-05-03T04:51:58.148Z,100.00
2023-05-03T04:54:26.479Z,100.00
2023-05-03T04:56:57.792Z,100.00
2023-05-03T04:59:25.855Z,100.00
2023-05-03T05:01:53.546Z,100.00
2023-05-03T05:04:21.272Z,100.00
2023-05-03T05:06:54.494Z,100.00
2023-05-03T05:09:28.462Z,100.00
2023-05-03T05:11:58.613Z,100.00
2023-05-03T05:14:31.731Z,100.00
2023-05-03T05:16:59.453Z,100.00
2023-05-03T05:19:27.493Z,100.00
2023-05-03T05:21:55.659Z,100.00
2023-05-03T05:24:27.293Z,100.00
2023-05-03T05:26:55.058Z,100.00
2023-05-03T05:29:22.491Z,100.00
2023-05-03T05:31:50.149Z,100.00
2023-05-03T05:34:17.653Z,100.00
2023-05-03T05:36:45.684Z,100.00
2023-05-03T05:39:13.649Z,100.00
2023-05-03T05:41:41.557Z,100.00
2023-05-03T05:44:09.335Z,100.00
2023-05-03T05:46:36.805Z,100.00
2023-05-03T05:49:04.828Z,100.00
2023-05-03T05:51:32.624Z,100.00
2023-05-03T05:54:09.241Z,100.00
2023-05-03T05:56:36.816Z,100.00
2023-05-03T05:59:07.991Z,100.00
2023-05-03T06:01:35.649Z,100.00
2023-05-03T06:04:04.729Z,100.00
2023-05-03T06:06:34.157Z,100.00
2023-05-03T06:09:07.013Z,100.00
2023-05-03T06:11:40.611Z,100.00
2023-05-03T06:14:09.570Z,100.00
2023-05-03T06:16:40.315Z,100.00
2023-05-03T06:19:08.790Z,100.00
2023-05-03T06:21:36.139Z,100.00
2023-05-03T06:24:03.964Z,100.00
2023-05-03T06:26:31.464Z,100.00
2023-05-03T06:29:00.813Z,100.00
2023-05-03T06:31:28.562Z,100.00
2023-05-03T06:33:56.573Z,100.00
2023-05-03T06:36:24.016Z,100.00
2023-05-03T06:38:51.854Z,100.00
2023-05-03T06:41:19.229Z,100.00
2023-05-03T06:43:46.690Z,100.00
2023-05-03T06:46:17.233Z,100.00
2023-05-03T06:48:46.585Z,100.00
2023-05-03T06:51:14.704Z,100.00
2023-05-03T06:53:42.066Z,100.00
2023-05-03T06:56:09.491Z,100.00
2023-05-03T06:58:36.861Z,100.00
2023-05-03T07:01:04.278Z,100.00
2023-05-03T07:03:31.736Z,100.00
2023-05-03T07:05:59.671Z,100.00
2023-05-03T07:08:26.989Z,100.00
2023-05-03T07:10:54.473Z,100.00
2023-05-03T07:13:21.858Z,100.00
2023-05-03T07:15:49.432Z,100.00
2023-05-03T07:18:16.854Z,100.00
2023-05-03T07:20:44.320Z,100.00
2023-05-03T07:23:11.732Z,100.00
2023-05-03T07:25:39.460Z,100.00
2023-05-03T07:28:06.818Z,100.00
2023-05-03T07:30:34.279Z,100.00
2023-05-03T07:33:01.736Z,100.00
2023-05-03T07:35:29.979Z,100.00
2023-05-03T07:37:57.326Z,100.00
2023-05-03T07:40:24.840Z,100.00
2023-05-03T07:42:52.207Z,100.00
2023-05-03T07:45:20.949Z,100.00
2023-05-03T07:47:48.258Z,100.00
2023-05-03T07:50:15.829Z,100.00
2023-05-03T07:52:43.495Z,100.00
2023-05-03T07:55:11.007Z,100.00
2023-05-03T07:57:38.395Z,100.00
2023-05-03T08:00:06.661Z,100.00
2023-05-03T08:02:41.094Z,100.00
2023-05-03T08:05:10.422Z,100.00
2023-05-03T08:07:37.923Z,100.00
2023-05-03T08:10:06.626Z,98.79
2023-05-03T08:12:34.154Z,97.91
2023-05-03T08:15:04.587Z,97.23
2023-05-03T08:17:32.128Z,95.70
2023-05-03T08:19:59.538Z,95.08
2023-05-03T08:22:27.040Z,95.23
2023-05-03T08:24:56.495Z,92.83
2023-05-03T08:27:25.743Z,92.26
2023-05-03T08:29:53.171Z,92.19
2023-05-03T08:32:21.348Z,92.06
2023-05-03T08:34:49.681Z,89.04
2023-05-03T08:37:20.154Z,86.81
2023-05-03T08:39:47.591Z,83.75
2023-05-03T08:42:15.391Z,75.54
2023-05-03T08:44:50.990Z,73.45
2023-05-03T08:47:18.456Z,66.05
2023-05-03T08:49:47.287Z,61.88
2023-05-03T08:52:16.654Z,59.01
2023-05-03T08:54:45.397Z,60.62
2023-05-03T08:57:15.062Z,58.33
2023-05-03T09:00:01.754Z,59.80
2023-05-03T09:02:30.066Z,59.49
2023-05-03T09:04:58.402Z,53.56
2023-05-03T09:07:25.919Z,53.53
2023-05-03T09:09:54.889Z,55.96
2023-05-03T09:12:35.888Z,54.42
2023-05-03T09:15:04.595Z,55.85
2023-05-03T09:17:32.049Z,54.31
2023-05-03T09:20:00.597Z,57.68
2023-05-03T09:22:33.617Z,59.95
2023-05-03T09:25:01.478Z,59.33
2023-05-03T09:27:28.765Z,58.35
2023-05-03T09:29:56.255Z,57.88
2023-05-03T09:32:24.319Z,58.67
2023-05-03T09:34:51.973Z,58.89
2023-05-03T09:37:36.459Z,61.43
2023-05-03T09:40:11.663Z,60.55
2023-05-03T09:42:43.660Z,51.61
2023-05-03T09:45:11.373Z,52.61
2023-05-03T09:47:52.511Z,54.50
2023-05-03T09:50:20.415Z,55.60
2023-05-03T09:52:51.317Z,59.83
2023-05-03T09:55:19.678Z,59.91
2023-05-03T09:57:48.006Z,57.53
2023-05-03T10:00:17.275Z,47.92
2023-05-03T10:02:45.655Z,50.63
2023-05-03T10:05:14.008Z,53.62
2023-05-03T10:07:43.398Z,50.39
2023-05-03T10:10:11.458Z,53.78
2023-05-03T10:12:38.870Z,51.87
2023-05-03T10:15:08.254Z,50.83
2023-05-03T10:20:32.439Z,44.98
2023-05-03T10:23:12.326Z,44.30
2023-05-03T10:26:00.759Z,47.74
2023-05-03T10:28:28.105Z,47.15
2023-05-03T10:30:56.222Z,46.62
2023-05-03T10:33:35.666Z,46.60
2023-05-03T10:36:10.001Z,43.96
2023-05-03T10:38:37.397Z,44.41
2023-05-03T10:41:06.895Z,45.97
2023-05-03T10:43:34.284Z,46.75
2023-05-03T10:46:06.705Z,49.23
2023-05-03T10:48:35.432Z,49.09
2023-05-03T10:51:36.757Z,50.29
2023-05-03T10:54:04.232Z,49.16
2023-05-03T10:56:31.676Z,50.17
2023-05-03T10:58:59.300Z,48.85
2023-05-03T11:01:28.012Z,51.69
2023-05-03T11:04:10.324Z,53.33
2023-05-03T11:06:41.190Z,55.39
2023-05-03T11:09:10.389Z,54.03
2023-05-03T11:11:39.817Z,53.82
2023-05-03T11:14:08.983Z,49.96
2023-05-03T11:16:37.225Z,50.98
2023-05-03T11:19:06.109Z,48.03
2023-05-03T11:21:33.460Z,50.43
2023-05-03T11:24:01.787Z,47.45
2023-05-03T11:26:29.140Z,45.78
2023-05-03T11:28:56.930Z,47.90
2023-05-03T11:31:24.510Z,49.46
2023-05-03T11:33:52.137Z,48.68
2023-05-03T11:36:20.084Z,50.84
2023-05-03T11:38:47.535Z,52.05
2023-05-03T11:41:17.363Z,51.87
2023-05-03T11:43:47.644Z,51.68
2023-05-03T11:46:21.700Z,50.66
2023-05-03T11:48:49.463Z,46.58
2023-05-03T11:51:22.371Z,44.91
2023-05-03T11:53:50.341Z,44.88
2023-05-03T11:56:20.403Z,47.44
2023-05-03T11:59:00.618Z,46.15
2023-05-03T12:01:29.434Z,46.81
2023-05-03T12:03:59.709Z,46.81
2023-05-03T12:06:30.618Z,45.52
2023-05-03T12:08:59.639Z,46.63
2023-05-03T12:11:28.782Z,46.90
2023-05-03T12:14:02.505Z,46.05
2023-05-03T12:16:47.164Z,47.04
2023-05-03T12:19:27.998Z,45.77
2023-05-03T12:24:33.387Z,46.14
2023-05-03T12:27:02.865Z,46.58
2023-05-03T12:29:34.737Z,47.93
2023-05-03T12:32:04.441Z,47.75
2023-05-03T12:34:36.671Z,48.66
2023-05-03T12:37:06.597Z,50.33
2023-05-03T12:39:35.233Z,49.67
2023-05-03T12:42:09.264Z,46.49
2023-05-03T12:44:42.290Z,47.47
2023-05-03T12:47:11.247Z,51.26
2023-05-03T12:49:39.954Z,51.16
2023-05-03T12:52:34.545Z,50.72
2023-05-03T12:54:56.065Z,52.10
2023-05-03T12:57:24.623Z,51.63
2023-05-03T13:00:02.007Z,51.50
2023-05-03T13:05:11.354Z,52.55
2023-05-03T13:07:43.038Z,54.42
2023-05-03T13:12:46.520Z,53.64
2023-05-03T13:15:14.676Z,53.67
2023-05-03T13:17:43.524Z,51.90
2023-05-03T13:20:13.754Z,53.60
2023-05-03T13:22:41.176Z,51.92
2023-05-03T13:25:09.632Z,49.77
2023-05-03T13:27:36.976Z,49.54
2023-05-03T13:30:05.074Z,51.01
2023-05-03T13:32:33.320Z,51.65
2023-05-03T13:35:01.198Z,51.38
2023-05-03T13:37:28.640Z,50.57
2023-05-03T13:39:58.955Z,51.76
2023-05-03T13:42:26.415Z,51.78
2023-05-03T13:44:53.911Z,49.31
2023-05-03T13:47:21.986Z,51.30
2023-05-03T13:49:49.399Z,49.70
2023-05-03T13:52:16.905Z,50.49
2023-05-03T13:54:44.425Z,53.03
2023-05-03T13:57:11.889Z,53.82
2023-05-03T13:59:39.307Z,50.33
2023-05-03T14:02:06.668Z,50.32
2023-05-03T14:04:34.209Z,50.52
2023-05-03T14:07:03.287Z,54.29
2023-05-03T14:09:33.260Z,54.26
2023-05-03T14:12:00.685Z,55.78
2023-05-03T14:14:28.100Z,53.05
2023-05-03T14:16:55.804Z,52.21
2023-05-03T14:19:23.363Z,52.29
2023-05-03T14:21:51.512Z,53.57
2023-05-03T14:24:19.044Z,53.53
2023-05-03T14:26:46.356Z,51.98
2023-05-03T14:29:13.714Z,52.60
2023-05-03T14:31:41.130Z,51.34
2023-05-03T14:34:08.630Z,52.35
2023-05-03T14:36:38.493Z,52.82
2023-05-03T14:39:07.236Z,54.56
2023-05-03T14:41:36.890Z,54.90
2023-05-03T14:44:04.392Z,55.83
2023-05-03T14:46:31.805Z,55.93
2023-05-03T14:48:59.810Z,55.78
2023-05-03T14:51:27.987Z,53.69
2023-05-03T14:53:55.348Z,53.47
2023-05-03T14:56:22.758Z,55.12
2023-05-03T14:58:50.477Z,54.82
2023-05-03T15:01:19.518Z,55.36
2023-05-03T15:03:47.108Z,55.45
2023-05-03T15:06:14.495Z,56.56
2023-05-03T15:08:44.769Z,57.17
2023-05-03T15:11:12.934Z,60.03
2023-05-03T15:13:40.704Z,61.49
2023-05-03T15:16:08.192Z,64.65
2023-05-03T15:18:36.120Z,68.15
2023-05-03T15:21:07.351Z,69.39
2023-05-03T15:23:34.733Z,69.30
2023-05-03T15:26:02.111Z,68.83
2023-05-03T15:28:29.515Z,68.99
2023-05-03T15:30:56.881Z,70.41
2023-05-03T15:33:24.478Z,69.01
2023-05-03T15:35:51.894Z,68.00
2023-05-03T15:38:19.257Z,67.75
2023-05-03T15:40:46.550Z,68.99
2023-05-03T15:43:13.869Z,69.92
2023-05-03T15:45:41.452Z,71.47
2023-05-03T15:48:08.870Z,72.42
2023-05-03T15:50:37.314Z,77.63
2023-05-03T15:53:04.607Z,75.63
2023-05-03T15:55:32.135Z,75.87
2023-05-03T15:57:59.767Z,75.48
2023-05-03T16:00:27.756Z,72.91
2023-05-03T16:02:55.651Z,73.54
2023-05-03T16:05:23.605Z,68.95
2023-05-03T16:07:51.833Z,67.22
2023-05-03T16:10:21.747Z,65.08
2023-05-03T16:12:50.242Z,66.70
2023-05-03T16:15:18.038Z,67.16
2023-05-03T16:17:48.365Z,66.33
2023-05-03T16:20:15.851Z,66.22
2023-05-03T16:22:43.323Z,67.12
2023-05-03T16:25:11.299Z,67.10
2023-05-03T16:27:40.227Z,66.60
2023-05-03T16:30:08.911Z,63.51
2023-05-03T16:32:36.976Z,64.42
2023-05-03T16:35:04.678Z,65.95
2023-05-03T16:37:34.017Z,63.12
2023-05-03T16:40:01.602Z,64.85
2023-05-03T16:42:29.017Z,66.83
2023-05-03T16:44:56.425Z,67.75
2023-05-03T16:47:23.749Z,67.77
2023-05-03T16:49:51.502Z,69.26
2023-05-03T16:52:18.973Z,69.03
2023-05-03T16:54:46.518Z,68.70
2023-05-03T16:57:13.913Z,69.47
2023-05-03T16:59:41.382Z,70.78
2023-05-03T17:02:11.012Z,70.16
2023-05-03T17:04:38.432Z,68.66
2023-05-03T17:07:05.843Z,68.56
2023-05-03T17:09:34.627Z,69.53
2023-05-03T17:12:03.555Z,69.88
2023-05-03T17:14:31.269Z,69.78
2023-05-03T17:16:58.567Z,70.79
2023-05-03T17:19:26.675Z,70.20
2023-05-03T17:21:54.513Z,69.66
2023-05-03T17:24:21.907Z,70.64
2023-05-03T17:26:49.329Z,70.10
2023-05-03T17:29:18.734Z,70.86
2023-05-03T17:31:46.148Z,71.92
2023-05-03T17:34:13.750Z,71.59
2023-05-03T17:36:41.401Z,71.45
2023-05-03T17:39:09.039Z,70.34
2023-05-03T17:41:37.051Z,70.65
2023-05-03T17:44:04.577Z,70.46
2023-05-03T17:46:33.075Z,70.29
2023-05-03T17:49:02.392Z,69.75
2023-05-03T17:51:32.106Z,69.88
2023-05-03T17:53:59.525Z,69.97
2023-05-03T17:56:29.590Z,68.94
2023-05-03T17:58:57.442Z,68.62
2023-05-03T18:01:25.299Z,69.37
2023-05-03T18:03:52.830Z,68.53
2023-05-03T18:06:20.386Z,68.56
2023-05-03T18:08:48.390Z,69.72
2023-05-03T18:11:16.073Z,69.41
2023-05-03T18:13:44.916Z,68.58
2023-05-03T18:16:12.398Z,70.14
2023-05-03T18:18:39.795Z,68.36
2023-05-03T18:21:07.450Z,67.98
2023-05-03T18:23:35.359Z,68.17
2023-05-03T18:26:03.779Z,67.90
2023-05-03T18:28:31.210Z,68.78
2023-05-03T18:30:58.991Z,69.39
2023-05-03T18:33:26.338Z,69.94
2023-05-03T18:35:53.913Z,69.82
2023-05-03T18:38:21.841Z,70.46
2023-05-03T18:40:49.694Z,70.44
2023-05-03T18:43:17.697Z,70.55
2023-05-03T18:45:45.344Z,71.27
2023-05-03T18:48:12.889Z,72.06
2023-05-03T18:50:42.977Z,72.73
2023-05-03T18:53:13.427Z,74.34
2023-05-03T18:55:41.593Z,74.92
2023-05-03T18:58:08.960Z,75.63
2023-05-03T19:00:36.962Z,75.93
2023-05-03T19:03:05.946Z,77.59
2023-05-03T19:05:34.919Z,77.77
2023-05-03T19:08:02.357Z,77.83
2023-05-03T19:10:30.050Z,78.42
2023-05-03T19:12:57.784Z,77.86
2023-05-03T19:15:25.320Z,78.21
2023-05-03T19:17:56.054Z,77.79
2023-05-03T19:20:24.783Z,77.46
2023-05-03T19:22:52.291Z,77.93
2023-05-03T19:25:19.726Z,78.07
2023-05-03T19:27:48.048Z,77.72
2023-05-03T19:30:15.808Z,76.84
2023-05-03T19:32:44.767Z,76.51
2023-05-03T19:35:12.557Z,76.19
2023-05-03T19:37:40.084Z,76.90
2023-05-03T19:40:08.347Z,78.40
2023-05-03T19:42:35.740Z,77.76
2023-05-03T19:45:03.993Z,78.03
2023-05-03T19:47:33.040Z,77.21
2023-05-03T19:50:00.481Z,77.75
2023-05-03T19:52:27.879Z,76.86
2023-05-03T19:54:56.369Z,76.19
2023-05-03T19:57:23.884Z,76.40
2023-05-03T19:59:51.258Z,76.74
2023-05-03T20:02:18.718Z,77.57
2023-05-03T20:04:46.552Z,79.64
2023-05-03T20:07:14.367Z,80.38
2023-05-03T20:09:42.299Z,81.45
2023-05-03T20:12:10.962Z,81.63
2023-05-03T20:14:38.430Z,81.88
2023-05-03T20:17:08.795Z,83.97
2023-05-03T20:19:36.181Z,81.62
2023-05-03T20:22:04.083Z,81.07
2023-05-03T20:24:31.563Z,80.55
2023-05-03T20:26:58.928Z,78.91
2023-05-03T20:29:28.134Z,81.04
2023-05-03T20:31:55.686Z,81.59
2023-05-03T20:34:23.410Z,83.22
2023-05-03T20:36:52.778Z,84.05
2023-05-03T20:39:24.440Z,84.73
2023-05-03T20:41:52.155Z,85.82
2023-05-03T20:44:19.578Z,83.47
2023-05-03T20:46:47.198Z,84.80
2023-05-03T20:49:15.046Z,85.28
2023-05-03T20:51:42.595Z,84.40
2023-05-03T20:54:10.910Z,85.07
2023-05-03T20:56:38.407Z,85.49
2023-05-03T20:59:06.053Z,85.79
2023-05-03T21:01:33.394Z,85.97
2023-05-03T21:04:00.985Z,85.81
2023-05-03T21:06:28.310Z,86.10
2023-05-03T21:08:56.044Z,86.84
2023-05-03T21:11:23.368Z,87.06
2023-05-03T21:13:50.955Z,85.87
2023-05-03T21:16:18.570Z,87.39
2023-05-03T21:18:45.960Z,86.96
2023-05-03T21:21:14.046Z,87.97
2023-05-03T21:23:41.486Z,88.38
2023-05-03T21:26:08.828Z,89.06
2023-05-03T21:28:36.322Z,88.90
2023-05-03T21:31:03.961Z,88.90
2023-05-03T21:33:31.365Z,89.46
2023-05-03T21:36:00.303Z,90.07
2023-05-03T21:38:28.180Z,90.07
2023-05-03T21:41:04.170Z,89.80
2023-05-03T21:43:32.426Z,89.71
2023-05-03T21:45:59.729Z,89.46
2023-05-03T21:48:27.361Z,90.10
2023-05-03T21:50:57.684Z,90.69
2023-05-03T21:53:25.080Z,89.98
2023-05-03T21:55:52.373Z,90.49
2023-05-03T21:58:19.752Z,89.27
2023-05-03T22:00:47.081Z,88.23
2023-05-03T22:03:17.661Z,89.11
2023-05-03T22:05:47.758Z,88.47
2023-05-03T22:08:18.089Z,87.68
2023-05-03T22:10:46.466Z,88.09
2023-05-03T22:13:14.113Z,87.63
2023-05-03T22:15:41.922Z,89.76
2023-05-03T22:18:09.437Z,89.86
2023-05-03T22:20:36.927Z,90.02
2023-05-03T22:23:04.589Z,90.66
2023-05-03T22:25:32.517Z,90.48
2023-05-03T22:28:00.792Z,90.86
2023-05-03T22:30:28.189Z,90.48
2023-05-03T22:32:55.568Z,91.28
2023-05-03T22:35:23.174Z,91.34
2023-05-03T22:37:50.690Z,90.95
2023-05-03T22:40:18.168Z,90.26
2023-05-03T22:42:45.463Z,91.30
2023-05-03T22:45:12.813Z,90.08
2023-05-03T22:47:40.184Z,90.10
2023-05-03T22:50:08.311Z,90.16
2023-05-03T22:52:35.909Z,90.05
2023-05-03T22:55:03.567Z,91.13
2023-05-03T22:57:31.581Z,91.66
2023-05-03T22:59:59.443Z,91.08
2023-05-03T23:02:27.015Z,90.77
2023-05-03T23:04:54.883Z,90.66
2023-05-03T23:07:22.226Z,91.19
2023-05-03T23:09:49.658Z,91.08
2023-05-03T23:12:17.079Z,91.82
2023-05-03T23:14:46.006Z,93.13
2023-05-03T23:17:13.731Z,91.81
2023-05-03T23:19:43.896Z,90.09
2023-05-03T23:22:11.281Z,89.24
2023-05-03T23:24:39.554Z,88.14
2023-05-03T23:27:07.864Z,87.16
2023-05-03T23:29:37.285Z,88.02
2023-05-03T23:32:05.095Z,88.85
2023-05-03T23:34:32.940Z,88.93
2023-05-03T23:37:00.575Z,88.08
2023-05-03T23:39:27.993Z,87.42
2023-05-03T23:41:55.312Z,87.80
2023-05-03T23:44:22.669Z,88.07
2023-05-03T23:46:50.118Z,87.31
2023-05-03T23:49:17.488Z,87.99
2023-05-03T23:51:44.829Z,89.69
2023-05-03T23:54:13.156Z,90.37
2023-05-03T23:56:40.615Z,90.47
2023-05-03T23:59:08.014Z,90.62
